Etusivu
METAR-TAF:

METAR-TAF

Lentoasemat :

Sørkjosen, Norja

Leveyspiiri: 69-47N, Pituuspiiri: 020-58E, korkeus merenpinnasta: 0 m

Tämänhetkinen sää

Tämä raportti tehtiin 6 tuntia ja 14 minuuttia sitten, kello 18.20 UTC
Tuuli 26 kn lännestä/luoteesta
Lämpötila 3°C
Kosteus 81%
Ilmanpaine 1034 hPa
Näkyvyys 10 km tai enemmän
Muutamia pilviä 1500 ft:n korkeudessa
Hajanaisia pilviä 2500 ft:n korkeudessa
Hajonneita pilviä 4500 ft:n korkeudessa
sadekuuroja näköpiirissä

METAR: ENSR 201820Z 31012KT 9999 VCSH FEW015 SCT025 BKN045 03/M00 Q1034 WIND 1119FT 29026KT

Aika: 01:34 (00:34 UTC)


TAF: puuttuu

Säähavainnot ja -ennusteet yli 4000 lentoasemalta (METAR- ja TAF-raportit).

Käytössä olevat sääasemat on merkitty karttaan keltaisilla ja punaisilla pisteillä.

Aseta hiiri pisteen päälle nähdäksesi sääaseman nimen.

Klikkaa sitten nähdäksesi säähavainnot ja -ennusteet.

Kartan vaihtaminen: klikkaa mustalla rastilla varustettuja vihreitä pisteitä, niin voit zoomata sisään; viivalla varustettua vihreää pistettä, niin voit zoomata ulos tai vihreitä nuolia, niin pääset viereisille kartoille.


METAR-TAF: